createdAt,value
2016-11-08T00:00:12.567Z,99.99
2016-11-08T00:01:12.581Z,99.99
2016-11-08T00:02:12.601Z,99.99
2016-11-08T00:03:12.621Z,99.99
2016-11-08T00:04:12.635Z,99.99
2016-11-08T00:05:12.651Z,99.99
2016-11-08T00:06:27.592Z,99.99
2016-11-08T00:07:12.689Z,99.99
2016-11-08T00:09:12.719Z,99.99
2016-11-08T00:10:12.738Z,99.99
2016-11-08T00:11:12.761Z,99.99
2016-11-08T00:12:12.779Z,99.99
2016-11-08T00:13:12.793Z,99.99
2016-11-08T00:14:12.807Z,99.99
2016-11-08T00:15:12.830Z,99.99
2016-11-08T00:16:12.846Z,99.99
2016-11-08T00:17:12.860Z,99.99
2016-11-08T00:18:12.880Z,99.99
2016-11-08T00:19:12.894Z,99.99
2016-11-08T00:20:12.911Z,99.99
2016-11-08T00:21:12.932Z,99.99
2016-11-08T00:22:13.198Z,99.99
2016-11-08T00:23:12.977Z,99.99
2016-11-08T00:24:12.983Z,99.99
2016-11-08T00:25:13.001Z,99.99
2016-11-08T00:26:13.019Z,99.99
2016-11-08T00:27:13.032Z,99.99
2016-11-08T00:28:13.055Z,99.99
2016-11-08T00:29:13.069Z,99.99
2016-11-08T00:30:13.083Z,99.99
2016-11-08T00:31:13.099Z,99.99
2016-11-08T00:32:13.123Z,99.99
2016-11-08T00:33:13.134Z,99.99
2016-11-08T00:34:13.154Z,99.99
2016-11-08T00:37:13.208Z,99.99
2016-11-08T00:38:28.145Z,99.99
2016-11-08T00:39:13.244Z,99.99
2016-11-08T00:40:13.256Z,99.99
2016-11-08T00:41:13.271Z,99.99
2016-11-08T00:42:13.292Z,99.99
2016-11-08T00:43:13.311Z,99.99
2016-11-08T00:44:13.332Z,99.99
2016-11-08T00:45:13.344Z,99.99
2016-11-08T00:46:13.362Z,99.99
2016-11-08T00:47:13.380Z,99.99
2016-11-08T00:48:13.392Z,99.99
2016-11-08T00:49:13.409Z,99.99
2016-11-08T00:50:13.435Z,99.99
2016-11-08T00:51:13.444Z,99.99
2016-11-08T00:52:13.462Z,99.99
2016-11-08T00:53:13.484Z,99.99
2016-11-08T00:54:28.422Z,99.99
2016-11-08T00:55:13.520Z,99.99
2016-11-08T00:56:13.539Z,99.99
2016-11-08T00:57:13.551Z,99.99
2016-11-08T00:58:13.570Z,99.99
2016-11-08T00:59:13.586Z,99.99
2016-11-08T01:00:13.600Z,99.99
2016-11-08T01:01:13.621Z,99.99
2016-11-08T01:02:13.637Z,99.99
2016-11-08T01:03:13.652Z,99.99
2016-11-08T01:04:13.674Z,99.99
2016-11-08T01:05:13.694Z,99.99
2016-11-08T01:07:13.718Z,99.99
2016-11-08T01:08:13.736Z,99.99
2016-11-08T01:09:13.762Z,99.99
2016-11-08T01:10:28.694Z,99.99
2016-11-08T01:11:13.789Z,99.99
2016-11-08T01:12:13.806Z,99.99
2016-11-08T01:13:13.826Z,99.99
2016-11-08T01:14:13.840Z,99.99
2016-11-08T01:15:13.857Z,99.99
2016-11-08T01:16:13.876Z,99.99
2016-11-08T01:17:13.893Z,99.99
2016-11-08T01:18:13.912Z,99.99
2016-11-08T01:19:13.927Z,99.99
2016-11-08T01:21:13.999Z,99.99
2016-11-08T01:22:13.979Z,99.99
2016-11-08T01:23:13.993Z,99.99
2016-11-08T01:24:14.012Z,99.99
2016-11-08T01:25:14.057Z,99.99
2016-11-08T01:26:28.969Z,99.99
2016-11-08T01:27:14.070Z,99.99
2016-11-08T01:28:14.081Z,99.99
2016-11-08T01:29:14.099Z,99.99
2016-11-08T01:30:14.124Z,99.99
2016-11-08T01:31:14.133Z,99.99
2016-11-08T01:32:14.185Z,99.99
2016-11-08T01:33:14.167Z,99.99
2016-11-08T01:34:14.182Z,99.99
2016-11-08T01:35:14.203Z,99.99
2016-11-08T01:36:14.217Z,99.99
2016-11-08T01:37:14.235Z,99.99
2016-11-08T01:38:14.249Z,99.99
2016-11-08T01:39:14.267Z,99.99
2016-11-08T01:40:14.288Z,99.99
2016-11-08T01:41:29.226Z,99.99
2016-11-08T01:42:14.323Z,99.99
2016-11-08T01:43:14.336Z,99.99
2016-11-08T01:44:14.357Z,99.99
2016-11-08T01:45:14.377Z,99.99
2016-11-08T01:46:14.389Z,99.99
2016-11-08T01:47:14.400Z,99.99
2016-11-08T01:48:14.421Z,99.99
2016-11-08T01:49:14.438Z,99.99
2016-11-08T01:50:14.453Z,99.99
2016-11-08T01:51:14.469Z,99.99
2016-11-08T01:52:14.745Z,99.99
2016-11-08T01:53:14.508Z,99.99
2016-11-08T01:56:14.553Z,99.99
2016-11-08T01:57:14.573Z,99.99
2016-11-08T01:59:14.608Z,99.99
2016-11-08T02:00:14.622Z,99.99
2016-11-08T02:01:14.638Z,99.99
2016-11-08T02:02:14.654Z,99.99
2016-11-08T02:03:14.679Z,99.99
2016-11-08T02:04:14.693Z,99.99
2016-11-08T02:05:14.709Z,99.99
2016-11-08T02:06:14.725Z,99.99
2016-11-08T02:07:14.743Z,99.99
2016-11-08T02:08:14.762Z,99.99
2016-11-08T02:09:14.780Z,99.99
2016-11-08T02:10:14.794Z,99.99
2016-11-08T02:11:14.842Z,99.99
2016-11-08T02:12:14.828Z,99.99
2016-11-08T02:13:29.766Z,99.99
2016-11-08T02:14:14.859Z,99.99
2016-11-08T02:15:14.880Z,99.99
2016-11-08T02:16:14.890Z,99.99
2016-11-08T02:17:14.953Z,99.99
2016-11-08T02:18:14.927Z,99.99
2016-11-08T02:19:14.947Z,99.99
2016-11-08T02:20:14.961Z,99.99
2016-11-08T02:21:14.976Z,99.99
2016-11-08T02:22:14.996Z,99.99
2016-11-08T02:23:15.010Z,99.99
2016-11-08T02:24:15.027Z,99.99
2016-11-08T02:25:15.043Z,99.99
2016-11-08T02:26:15.066Z,99.99
2016-11-08T02:27:15.081Z,99.99
2016-11-08T02:29:30.035Z,99.99
2016-11-08T02:30:15.130Z,99.99
2016-11-08T02:31:15.151Z,99.99
2016-11-08T02:32:15.166Z,99.99
2016-11-08T02:33:15.179Z,99.99
2016-11-08T02:34:15.200Z,99.99
2016-11-08T02:35:15.212Z,99.99
2016-11-08T02:36:15.229Z,99.99
2016-11-08T02:37:15.250Z,99.99
2016-11-08T02:38:15.265Z,99.99
2016-11-08T02:39:15.280Z,99.99
2016-11-08T02:40:15.300Z,99.99
2016-11-08T02:42:15.329Z,99.99
2016-11-08T02:43:15.375Z,99.99
2016-11-08T02:44:15.366Z,99.99
2016-11-08T02:45:30.304Z,99.99
2016-11-08T02:46:15.400Z,99.99
2016-11-08T02:47:15.413Z,99.99
2016-11-08T02:48:15.432Z,99.99
2016-11-08T02:49:15.453Z,99.99
2016-11-08T02:50:15.469Z,99.99
2016-11-08T02:51:15.490Z,99.99
2016-11-08T02:52:15.506Z,99.99
2016-11-08T02:53:15.767Z,99.99
2016-11-08T02:54:15.531Z,99.99
2016-11-08T02:55:15.550Z,99.99
2016-11-08T02:56:15.570Z,99.99
2016-11-08T02:57:15.588Z,99.99
2016-11-08T03:01:30.571Z,99.99
2016-11-08T03:02:15.669Z,99.99
2016-11-08T03:03:15.682Z,99.99
2016-11-08T03:04:15.702Z,99.99
2016-11-08T03:05:15.721Z,99.99
2016-11-08T03:06:15.737Z,99.99
2016-11-08T03:07:15.753Z,99.99
2016-11-08T03:08:15.804Z,99.99
2016-11-08T03:09:15.787Z,99.99
2016-11-08T03:10:15.802Z,99.99
2016-11-08T03:11:15.847Z,99.99
2016-11-08T03:12:15.835Z,99.99
2016-11-08T03:13:15.854Z,99.99
2016-11-08T03:14:15.867Z,99.99
2016-11-08T03:15:15.887Z,99.99
2016-11-08T03:16:30.826Z,99.99
2016-11-08T03:17:15.920Z,99.99
2016-11-08T03:18:15.936Z,99.99
2016-11-08T03:19:15.957Z,99.99
2016-11-08T03:20:15.969Z,99.99
2016-11-08T03:21:15.985Z,99.99
2016-11-08T03:22:16.007Z,99.99
2016-11-08T03:23:16.021Z,99.99
2016-11-08T03:24:16.036Z,99.99
2016-11-08T03:25:16.594Z,99.99
2016-11-08T03:26:16.074Z,99.99
2016-11-08T03:27:16.090Z,99.99
2016-11-08T03:28:16.107Z,99.99
2016-11-08T03:29:16.121Z,99.99
2016-11-08T03:30:16.140Z,99.99
2016-11-08T03:31:16.159Z,99.99
2016-11-08T03:32:16.174Z,99.99
2016-11-08T03:34:16.206Z,99.99
2016-11-08T03:35:16.224Z,99.99
2016-11-08T03:36:16.240Z,99.99
2016-11-08T03:37:16.251Z,99.99
2016-11-08T03:38:16.274Z,99.99
2016-11-08T03:39:16.289Z,99.99
2016-11-08T03:40:16.305Z,99.99
2016-11-08T03:41:16.322Z,99.99
2016-11-08T03:42:16.336Z,99.99
2016-11-08T03:43:16.357Z,99.99
2016-11-08T03:44:16.373Z,99.99
2016-11-08T03:46:16.409Z,99.99
2016-11-08T03:47:16.419Z,99.99
2016-11-08T03:48:31.361Z,99.99
2016-11-08T03:49:16.469Z,99.99
2016-11-08T03:50:16.476Z,99.99
2016-11-08T03:51:16.742Z,99.99
2016-11-08T03:52:16.502Z,99.99
2016-11-08T03:53:16.522Z,99.99
2016-11-08T03:54:16.538Z,99.99
2016-11-08T03:55:16.552Z,99.99
2016-11-08T03:56:16.573Z,99.99
2016-11-08T03:57:16.586Z,99.99
2016-11-08T03:58:16.602Z,99.99
2016-11-08T03:59:16.623Z,99.99
2016-11-08T04:00:16.640Z,99.99
2016-11-08T04:01:16.656Z,99.99
2016-11-08T04:02:16.670Z,99.99
2016-11-08T04:03:16.690Z,99.99
2016-11-08T04:04:31.629Z,99.99
2016-11-08T04:05:16.722Z,99.99
2016-11-08T04:06:16.741Z,99.99
2016-11-08T04:07:16.757Z,99.99
2016-11-08T04:08:16.771Z,99.99
2016-11-08T04:09:16.793Z,99.99
2016-11-08T04:10:16.806Z,99.99
2016-11-08T04:11:16.835Z,99.99
2016-11-08T04:12:16.838Z,99.99
2016-11-08T04:13:16.853Z,99.99
2016-11-08T04:14:16.873Z,99.99
2016-11-08T04:15:16.887Z,99.99
2016-11-08T04:17:16.918Z,99.99
2016-11-08T04:18:16.938Z,99.99
2016-11-08T04:19:16.958Z,99.99
2016-11-08T04:20:31.894Z,99.99
2016-11-08T04:21:16.987Z,99.99
2016-11-08T04:22:17.009Z,99.99
2016-11-08T04:23:17.025Z,99.99
2016-11-08T04:24:17.037Z,99.99
2016-11-08T04:25:17.055Z,99.99
2016-11-08T04:26:17.075Z,99.99
2016-11-08T04:27:17.085Z,99.99
2016-11-08T04:28:17.104Z,99.99
2016-11-08T04:29:17.121Z,99.99
2016-11-08T04:30:17.137Z,99.99
2016-11-08T04:31:17.157Z,99.99
2016-11-08T04:32:17.171Z,99.99
2016-11-08T04:33:17.188Z,99.99
2016-11-08T04:34:17.208Z,99.99
2016-11-08T04:35:17.218Z,99.99
2016-11-08T04:36:32.160Z,99.99
2016-11-08T04:37:17.258Z,99.99
2016-11-08T04:38:17.275Z,99.99
2016-11-08T04:39:17.286Z,99.99
2016-11-08T04:40:17.306Z,99.99
2016-11-08T04:41:17.330Z,99.99
2016-11-08T04:42:17.339Z,99.99
2016-11-08T04:43:17.353Z,99.99
2016-11-08T04:44:17.375Z,99.99
2016-11-08T04:45:17.389Z,99.99
2016-11-08T04:46:17.404Z,99.99
2016-11-08T04:47:17.419Z,99.99
2016-11-08T04:48:17.439Z,99.99
2016-11-08T04:49:17.455Z,99.99
2016-11-08T04:50:17.476Z,99.99
2016-11-08T04:51:32.408Z,99.99
2016-11-08T04:52:17.506Z,99.99
2016-11-08T04:53:17.522Z,99.99
2016-11-08T04:54:17.539Z,99.99
2016-11-08T04:55:17.555Z,99.99
2016-11-08T04:56:17.575Z,99.99
2016-11-08T04:57:17.585Z,99.99
2016-11-08T04:58:17.605Z,99.99
2016-11-08T04:59:17.617Z,99.99
2016-11-08T05:00:17.668Z,99.99
2016-11-08T05:01:17.654Z,99.99
2016-11-08T05:02:17.674Z,99.99
2016-11-08T05:03:17.687Z,99.99
2016-11-08T05:04:17.701Z,99.99
2016-11-08T05:05:17.721Z,99.99
2016-11-08T05:06:17.754Z,99.99
2016-11-08T05:07:17.755Z,99.99
2016-11-08T05:08:17.773Z,99.99
2016-11-08T05:09:17.791Z,99.99
2016-11-08T05:10:17.804Z,99.99
2016-11-08T05:11:17.815Z,99.99
2016-11-08T05:12:17.837Z,99.99
2016-11-08T05:13:17.856Z,99.99
2016-11-08T05:14:17.868Z,99.99
2016-11-08T05:15:17.887Z,99.99
2016-11-08T05:16:17.904Z,99.99
2016-11-08T05:17:17.920Z,99.99
2016-11-08T05:18:17.969Z,99.99
2016-11-08T05:19:17.953Z,99.99
2016-11-08T05:20:17.968Z,99.99
2016-11-08T05:21:17.984Z,99.99
2016-11-08T05:22:18.006Z,99.99
2016-11-08T05:23:32.939Z,99.99
2016-11-08T05:24:18.488Z,99.99
2016-11-08T05:25:18.057Z,99.99
2016-11-08T05:27:18.089Z,99.99
2016-11-08T05:28:18.103Z,99.99
2016-11-08T05:29:18.117Z,99.99
2016-11-08T05:30:18.133Z,99.99
2016-11-08T05:31:18.153Z,99.99
2016-11-08T05:32:18.166Z,99.99
2016-11-08T05:33:18.218Z,99.99
2016-11-08T05:34:18.204Z,99.99
2016-11-08T05:35:18.215Z,99.99
2016-11-08T05:37:18.250Z,99.99
2016-11-08T05:38:18.266Z,99.99
2016-11-08T05:39:33.209Z,99.99
2016-11-08T05:40:18.308Z,99.99
2016-11-08T05:41:18.325Z,99.99
2016-11-08T05:42:18.342Z,99.99
2016-11-08T05:43:18.359Z,99.99
2016-11-08T05:44:18.372Z,99.99
2016-11-08T05:45:18.386Z,99.99
2016-11-08T05:46:18.400Z,99.99
2016-11-08T05:47:18.416Z,99.99
2016-11-08T05:48:18.434Z,99.99
2016-11-08T05:49:18.446Z,99.99
2016-11-08T05:50:18.469Z,99.99
2016-11-08T05:51:18.482Z,99.99
2016-11-08T05:52:18.502Z,99.99
2016-11-08T05:53:18.520Z,99.99
2016-11-08T05:55:33.472Z,99.99
2016-11-08T05:57:18.584Z,99.99
2016-11-08T05:58:18.612Z,99.99
2016-11-08T05:59:18.620Z,99.99
2016-11-08T06:00:18.630Z,99.99
2016-11-08T06:01:18.908Z,99.99
2016-11-08T06:02:18.666Z,99.99
2016-11-08T06:03:18.690Z,99.99
2016-11-08T06:04:18.698Z,99.99
2016-11-08T06:05:18.719Z,99.99
2016-11-08T06:06:18.735Z,99.99
2016-11-08T06:07:18.747Z,99.99
2016-11-08T06:08:18.767Z,99.99
2016-11-08T06:10:18.802Z,99.99
2016-11-08T06:11:33.738Z,99.99
2016-11-08T06:12:18.835Z,99.99
2016-11-08T06:13:18.847Z,99.99
2016-11-08T06:14:18.867Z,99.99
2016-11-08T06:15:18.887Z,99.99
2016-11-08T06:16:18.901Z,99.99
2016-11-08T06:17:18.912Z,99.99
2016-11-08T06:18:18.931Z,99.99
2016-11-08T06:19:18.967Z,99.99
2016-11-08T06:20:18.971Z,99.99
2016-11-08T06:21:18.979Z,99.99
2016-11-08T06:22:18.998Z,99.99
2016-11-08T06:23:19.013Z,99.99
2016-11-08T06:24:19.032Z,99.99
2016-11-08T06:25:19.050Z,99.99
2016-11-08T06:26:33.989Z,99.99
2016-11-08T06:27:19.083Z,99.99
2016-11-08T06:29:19.116Z,99.99
2016-11-08T06:30:19.129Z,99.99
2016-11-08T06:31:19.157Z,99.99
2016-11-08T06:32:19.162Z,99.99
2016-11-08T06:33:19.187Z,99.99
2016-11-08T06:34:19.198Z,99.99
2016-11-08T06:35:19.218Z,99.99
2016-11-08T06:36:19.234Z,99.99
2016-11-08T06:37:19.251Z,99.99
2016-11-08T06:38:19.263Z,99.99
2016-11-08T06:39:19.286Z,99.99
2016-11-08T06:40:19.302Z,99.99
2016-11-08T06:42:19.336Z,99.99
2016-11-08T06:44:19.364Z,99.99
2016-11-08T06:45:19.384Z,99.99
2016-11-08T06:46:19.402Z,99.99
2016-11-08T06:47:19.413Z,99.99
2016-11-08T06:48:19.434Z,99.99
2016-11-08T06:49:19.852Z,99.99
2016-11-08T06:50:19.468Z,99.99
2016-11-08T06:51:19.482Z,99.99
2016-11-08T06:52:19.503Z,99.99
2016-11-08T06:53:19.517Z,99.99
2016-11-08T06:54:19.539Z,99.99
2016-11-08T06:55:19.547Z,99.99
2016-11-08T06:57:19.588Z,99.99
2016-11-08T06:58:34.524Z,99.99
2016-11-08T06:59:19.621Z,99.99
2016-11-08T07:00:19.640Z,99.99
2016-11-08T07:01:19.653Z,99.99
2016-11-08T07:02:19.668Z,99.99
2016-11-08T07:03:19.682Z,99.99
2016-11-08T07:04:19.702Z,99.99
2016-11-08T07:05:19.719Z,99.99
2016-11-08T07:06:19.738Z,99.99
2016-11-08T07:07:19.753Z,99.99
2016-11-08T07:08:19.768Z,99.99
2016-11-08T07:09:19.785Z,99.99
2016-11-08T07:10:19.802Z,99.99
2016-11-08T07:11:19.817Z,99.99
2016-11-08T07:12:19.839Z,99.99
2016-11-08T07:13:19.856Z,99.99
2016-11-08T07:14:34.794Z,99.99
2016-11-08T07:15:20.041Z,99.99
2016-11-08T07:16:19.902Z,99.99
2016-11-08T07:17:19.921Z,99.99
2016-11-08T07:18:19.936Z,99.99
2016-11-08T07:19:19.954Z,99.99
2016-11-08T07:20:19.970Z,99.99
2016-11-08T07:21:19.989Z,99.99
2016-11-08T07:22:20.004Z,99.99
2016-11-08T07:23:20.023Z,99.99
2016-11-08T07:24:20.040Z,99.99
2016-11-08T07:25:20.056Z,99.99
2016-11-08T07:27:20.089Z,99.99
2016-11-08T07:28:20.108Z,99.99
2016-11-08T07:29:20.124Z,99.99
2016-11-08T07:30:35.063Z,99.99
2016-11-08T07:31:20.156Z,99.99
2016-11-08T07:32:20.174Z,99.99
2016-11-08T07:33:20.201Z,99.99
2016-11-08T07:34:20.207Z,99.99
2016-11-08T07:35:20.225Z,99.99
2016-11-08T07:36:20.239Z,99.99
2016-11-08T07:37:20.258Z,99.99
2016-11-08T07:38:20.274Z,99.99
2016-11-08T07:39:20.290Z,99.99
2016-11-08T07:40:20.310Z,99.99
2016-11-08T07:41:20.323Z,99.99
2016-11-08T07:42:20.347Z,99.99
2016-11-08T07:43:20.361Z,99.99
2016-11-08T07:44:20.376Z,99.99
2016-11-08T07:46:35.334Z,99.99
2016-11-08T07:47:20.430Z,99.99
2016-11-08T07:48:20.448Z,99.99
2016-11-08T07:49:20.466Z,99.99
2016-11-08T07:50:20.480Z,99.99
2016-11-08T07:51:20.497Z,99.99
2016-11-08T07:52:20.511Z,99.99
2016-11-08T07:53:20.532Z,99.99
2016-11-08T07:54:20.553Z,99.99
2016-11-08T07:55:20.564Z,99.99
2016-11-08T07:56:20.586Z,99.99
2016-11-08T07:57:20.599Z,99.99
2016-11-08T07:58:20.618Z,99.99
2016-11-08T07:59:20.641Z,99.99
2016-11-08T08:00:20.653Z,99.99
2016-11-08T08:01:35.593Z,99.99
2016-11-08T08:03:20.706Z,99.99
2016-11-08T08:04:20.724Z,99.99
2016-11-08T08:06:20.757Z,99.99
2016-11-08T08:07:20.802Z,99.99
2016-11-08T08:08:20.789Z,99.99
2016-11-08T08:09:20.808Z,99.99
2016-11-08T08:10:20.825Z,99.99
2016-11-08T08:11:20.838Z,99.99
2016-11-08T08:12:20.862Z,99.99
2016-11-08T08:13:20.876Z,99.99
2016-11-08T08:14:20.891Z,99.99
2016-11-08T08:15:20.910Z,99.99
2016-11-08T08:16:20.925Z,99.99
2016-11-08T08:17:20.942Z,99.99
2016-11-08T08:18:20.962Z,99.99
2016-11-08T08:19:20.977Z,99.99
2016-11-08T08:20:20.991Z,99.99
2016-11-08T08:21:21.012Z,99.99
2016-11-08T08:22:21.028Z,99.99
2016-11-08T08:23:21.045Z,99.99
2016-11-08T08:24:22.465Z,99.99
2016-11-08T08:25:21.078Z,99.99
2016-11-08T08:26:21.294Z,99.99
2016-11-08T08:27:21.313Z,99.99
2016-11-08T08:28:21.133Z,99.99
2016-11-08T08:29:21.146Z,99.99
2016-11-08T08:30:21.169Z,99.99
2016-11-08T08:31:21.285Z,99.99
2016-11-08T08:33:36.488Z,99.99
2016-11-08T08:34:22.537Z,99.99
2016-11-08T08:35:21.253Z,99.99
2016-11-08T08:36:21.866Z,99.99
2016-11-08T08:37:23.490Z,99.99
2016-11-08T08:38:21.557Z,99.99
2016-11-08T08:39:21.319Z,99.99
2016-11-08T08:40:21.439Z,99.99
2016-11-08T08:41:21.453Z,99.99
2016-11-08T08:42:21.373Z,99.99
2016-11-08T08:43:21.385Z,99.99
2016-11-08T08:44:21.451Z,99.99
2016-11-08T08:45:21.424Z,99.99
2016-11-08T08:46:23.194Z,99.99
2016-11-08T08:47:21.456Z,99.99
2016-11-08T08:48:21.518Z,99.99
2016-11-08T08:49:37.867Z,99.99
2016-11-08T08:51:22.628Z,99.99
2016-11-08T08:52:21.551Z,99.99
2016-11-08T08:53:21.860Z,99.99
2016-11-08T08:54:22.081Z,99.99
2016-11-08T08:55:21.606Z,99.99
2016-11-08T08:56:21.655Z,99.99
2016-11-08T08:57:21.638Z,99.99
2016-11-08T08:58:22.005Z,99.99
2016-11-08T08:59:22.632Z,99.99
2016-11-08T09:00:21.747Z,99.99
2016-11-08T09:01:21.716Z,99.99
2016-11-08T09:02:21.731Z,99.99
2016-11-08T09:03:21.750Z,99.99
2016-11-08T09:04:22.526Z,99.99
2016-11-08T09:05:36.698Z,99.99
2016-11-08T09:06:21.801Z,99.99
2016-11-08T09:07:23.104Z,99.99
2016-11-08T09:08:22.140Z,99.99
2016-11-08T09:09:36.767Z,99.99
2016-11-08T09:10:22.571Z,99.99
2016-11-08T09:11:21.988Z,99.99
2016-11-08T09:12:21.905Z,99.99
2016-11-08T09:13:22.271Z,99.99
2016-11-08T09:14:22.139Z,99.99
2016-11-08T09:15:22.110Z,99.99
2016-11-08T09:16:22.076Z,99.99
2016-11-08T09:17:22.044Z,99.99
2016-11-08T09:18:22.011Z,99.99
2016-11-08T09:19:22.030Z,99.99
2016-11-08T09:20:22.047Z,99.99
2016-11-08T09:21:38.079Z,99.99
2016-11-08T09:22:22.180Z,99.99
2016-11-08T09:23:22.150Z,99.99
2016-11-08T09:24:23.368Z,99.99
2016-11-08T09:25:22.134Z,99.99
2016-11-08T09:26:23.053Z,99.99
2016-11-08T09:27:22.173Z,99.99
2016-11-08T09:28:22.787Z,99.99
2016-11-08T09:29:22.207Z,99.99
2016-11-08T09:30:22.218Z,99.99
2016-11-08T09:31:22.239Z,99.99
2016-11-08T09:32:22.255Z,99.99
2016-11-08T09:33:22.327Z,99.99
2016-11-08T09:34:22.294Z,99.99
2016-11-08T09:35:22.313Z,99.99
2016-11-08T09:36:38.895Z,99.99
2016-11-08T09:37:22.345Z,99.99
2016-11-08T09:38:22.915Z,99.99
2016-11-08T09:39:22.529Z,99.99
2016-11-08T09:40:22.598Z,99.99
2016-11-08T09:41:22.417Z,99.99
2016-11-08T09:42:22.432Z,99.99
2016-11-08T09:46:22.502Z,99.99
2016-11-08T09:47:22.722Z,99.99
2016-11-08T09:48:23.443Z,99.99
2016-11-08T09:49:22.558Z,99.99
2016-11-08T09:50:22.582Z,99.99
2016-11-08T09:51:22.798Z,99.99
2016-11-08T09:52:22.617Z,99.99
2016-11-08T09:53:22.779Z,99.99
2016-11-08T09:54:24.002Z,99.99
2016-11-08T09:56:22.884Z,99.99
2016-11-08T09:57:23.705Z,99.99
2016-11-08T09:58:23.871Z,99.99
2016-11-08T09:59:22.890Z,99.99
2016-11-08T10:00:24.812Z,99.99
2016-11-08T10:01:22.871Z,99.99
2016-11-08T10:02:23.742Z,99.99
2016-11-08T10:03:23.762Z,99.99
2016-11-08T10:04:22.929Z,99.99
2016-11-08T10:05:23.458Z,99.99
2016-11-08T10:06:22.868Z,99.99
2016-11-08T10:07:22.881Z,99.99
2016-11-08T10:08:37.814Z,99.99
2016-11-08T10:09:23.117Z,99.99
2016-11-08T10:10:22.937Z,99.99
2016-11-08T10:11:22.955Z,99.99
2016-11-08T10:12:22.969Z,99.99
2016-11-08T10:13:22.989Z,99.99
2016-11-08T10:14:23.007Z,99.99
2016-11-08T10:15:23.024Z,99.99
2016-11-08T10:16:23.043Z,99.99
2016-11-08T10:17:23.061Z,99.87
2016-11-08T10:18:23.080Z,99.77
2016-11-08T10:19:23.096Z,98.83
2016-11-08T10:20:23.116Z,98.92
2016-11-08T10:21:23.134Z,98.64
2016-11-08T10:22:23.154Z,99.21
2016-11-08T10:23:23.171Z,98.92
2016-11-08T10:24:38.132Z,98.83
2016-11-08T10:25:23.209Z,98.35
2016-11-08T10:26:23.223Z,97.69
2016-11-08T10:27:23.242Z,97.6
2016-11-08T10:28:23.259Z,98.16
2016-11-08T10:29:23.281Z,98.45
2016-11-08T10:30:23.299Z,98.07
2016-11-08T10:31:23.314Z,97.6
2016-11-08T10:33:23.354Z,97.41
2016-11-08T10:34:23.374Z,98.16
2016-11-08T10:35:23.390Z,98.07
2016-11-08T10:36:23.407Z,98.16
2016-11-08T10:37:23.427Z,97.69
2016-11-08T10:38:23.446Z,98.26
2016-11-08T10:39:23.463Z,97.69
2016-11-08T10:40:38.396Z,97.69
2016-11-08T10:41:23.501Z,97.02
2016-11-08T10:42:23.519Z,96.45
2016-11-08T10:43:23.537Z,96.08
2016-11-08T10:44:23.553Z,96.45
2016-11-08T10:45:23.571Z,95.89
2016-11-08T10:46:23.641Z,96.08
2016-11-08T10:47:23.613Z,95.89
2016-11-08T10:48:23.631Z,96.17
2016-11-08T10:49:23.652Z,96.03
2016-11-08T10:50:23.665Z,95.98
2016-11-08T10:51:23.688Z,95.98
2016-11-08T10:52:23.703Z,95.94
2016-11-08T10:53:23.723Z,95.94
2016-11-08T10:54:23.742Z,96.12
2016-11-08T10:55:23.758Z,95.75
2016-11-08T10:56:38.692Z,95.55
2016-11-08T10:57:23.794Z,95.94
2016-11-08T10:58:23.818Z,95.65
2016-11-08T10:59:23.836Z,95.41
2016-11-08T11:00:23.852Z,96.08
2016-11-08T11:01:23.872Z,95.51
2016-11-08T11:02:23.889Z,95.89
2016-11-08T11:03:23.906Z,95.79
2016-11-08T11:05:23.951Z,95.6
2016-11-08T11:06:23.969Z,95.79
2016-11-08T11:07:23.987Z,95.31
2016-11-08T11:08:24.006Z,95.7
2016-11-08T11:09:24.025Z,95.79
2016-11-08T11:10:24.041Z,95.41
2016-11-08T11:11:38.977Z,95.41
2016-11-08T11:12:24.080Z,95.03
2016-11-08T11:13:24.097Z,95.41
2016-11-08T11:14:24.118Z,95.31
2016-11-08T11:15:24.135Z,95.51
2016-11-08T11:18:24.190Z,95.22
2016-11-08T11:19:24.212Z,95.31
2016-11-08T11:20:24.230Z,95.51
2016-11-08T11:21:24.247Z,95.6
2016-11-08T11:22:24.269Z,95.75
2016-11-08T11:23:24.287Z,95.6
2016-11-08T11:24:24.304Z,95.55
2016-11-08T11:25:24.325Z,95.17
2016-11-08T11:26:24.344Z,95.46
2016-11-08T11:27:24.363Z,95.03
2016-11-08T11:28:24.381Z,95.12
2016-11-08T11:29:24.399Z,95.22
2016-11-08T11:30:24.420Z,95.6
2016-11-08T11:31:24.438Z,95.41
2016-11-08T11:32:24.465Z,95.6
2016-11-08T11:33:24.476Z,95.98
2016-11-08T11:36:24.532Z,95.98
2016-11-08T11:37:24.552Z,95.7
2016-11-08T11:38:24.569Z,96.17
2016-11-08T11:39:24.588Z,95.89
2016-11-08T11:40:24.610Z,95.79
2016-11-08T11:41:24.624Z,95.6
2016-11-08T11:42:24.645Z,95.79
2016-11-08T11:43:39.578Z,95.7
2016-11-08T11:44:24.683Z,95.89
2016-11-08T11:45:24.705Z,94.93
2016-11-08T11:46:24.720Z,95.7
2016-11-08T11:47:24.789Z,96.17
2016-11-08T11:48:24.758Z,95.98
2016-11-08T11:49:24.780Z,96.08
2016-11-08T11:50:24.794Z,95.7
2016-11-08T11:51:24.818Z,96.08
2016-11-08T11:52:24.834Z,95.89
2016-11-08T11:53:24.855Z,96.26
2016-11-08T11:54:24.871Z,96.64
2016-11-08T11:55:24.889Z,96.36
2016-11-08T11:56:24.958Z,96.08
2016-11-08T11:57:24.925Z,96.55
2016-11-08T11:58:24.949Z,96.74
2016-11-08T11:59:39.880Z,97.31
2016-11-08T12:00:25.038Z,96.74
2016-11-08T12:01:25.007Z,97.22
2016-11-08T12:02:26.573Z,97.31
2016-11-08T12:03:25.040Z,97.02
2016-11-08T12:04:25.058Z,96.45
2016-11-08T12:05:25.081Z,96.08
2016-11-08T12:07:25.116Z,96.26
2016-11-08T12:08:25.134Z,96.74
2016-11-08T12:09:25.404Z,96.69
2016-11-08T12:10:25.424Z,96.12
2016-11-08T12:11:25.191Z,96.5
2016-11-08T12:12:25.268Z,96.12
2016-11-08T12:13:25.480Z,95.75
2016-11-08T12:14:25.250Z,95.55
2016-11-08T12:15:40.181Z,95.27
2016-11-08T12:16:25.284Z,95.94
2016-11-08T12:17:25.308Z,95.55
2016-11-08T12:18:25.325Z,95.36
2016-11-08T12:19:25.343Z,95.17
2016-11-08T12:20:25.361Z,94.98
2016-11-08T12:22:25.408Z,95.17
2016-11-08T12:23:26.621Z,94.79
2016-11-08T12:24:25.494Z,94.7
2016-11-08T12:25:25.457Z,94.51
2016-11-08T12:26:25.478Z,94.51
2016-11-08T12:27:25.493Z,93.65
2016-11-08T12:28:25.513Z,93.46
2016-11-08T12:29:25.538Z,93.18
2016-11-08T12:30:25.552Z,92.94
2016-11-08T12:31:40.487Z,93.13
2016-11-08T12:32:25.600Z,93.37
2016-11-08T12:33:25.610Z,93.37
2016-11-08T12:34:25.629Z,92.56
2016-11-08T12:35:25.649Z,93.13
2016-11-08T12:36:25.666Z,93.32
2016-11-08T12:37:25.686Z,93.41
2016-11-08T12:38:25.859Z,93.13
2016-11-08T12:39:25.730Z,93.32
2016-11-08T12:40:25.755Z,92.85
2016-11-08T12:41:25.764Z,92.27
2016-11-08T12:42:25.933Z,92.37
2016-11-08T12:43:25.807Z,92.18
2016-11-08T12:44:25.821Z,92.37
2016-11-08T12:45:25.841Z,92.66
2016-11-08T12:46:40.777Z,92.46
2016-11-08T12:47:25.881Z,92.27
2016-11-08T12:48:25.950Z,92.66
2016-11-08T12:49:25.919Z,92.46
2016-11-08T12:51:26.012Z,93.13
2016-11-08T12:53:26.001Z,93.51
2016-11-08T12:54:26.019Z,93.41
2016-11-08T12:55:26.037Z,92.85
2016-11-08T12:56:26.056Z,92.94
2016-11-08T12:57:26.074Z,93.37
2016-11-08T12:58:26.093Z,93.75
2016-11-08T12:59:26.121Z,93.56
2016-11-08T13:00:26.136Z,93.56
2016-11-08T13:01:26.153Z,93.75
2016-11-08T13:02:26.172Z,93.37
2016-11-08T13:03:26.215Z,93.75
2016-11-08T13:04:26.210Z,94.42
2016-11-08T13:05:26.230Z,93.94
2016-11-08T13:06:26.250Z,94.13
2016-11-08T13:07:26.268Z,94.51
2016-11-08T13:08:26.285Z,94.51
2016-11-08T13:09:26.307Z,94.98
2016-11-08T13:10:26.373Z,94.7
2016-11-08T13:11:26.396Z,94.7
2016-11-08T13:12:26.512Z,94.32
2016-11-08T13:13:26.415Z,94.79
2016-11-08T13:14:26.500Z,94.51
2016-11-08T13:15:26.422Z,94.98
2016-11-08T13:16:26.439Z,94.42
2016-11-08T13:17:26.463Z,94.32
2016-11-08T13:18:41.893Z,94.79
2016-11-08T13:19:28.764Z,94.89
2016-11-08T13:20:26.520Z,94.6
2016-11-08T13:21:26.540Z,94.03
2016-11-08T13:22:26.606Z,94.7
2016-11-08T13:23:26.576Z,94.7
2016-11-08T13:24:26.645Z,94.79
2016-11-08T13:25:26.610Z,94.51
2016-11-08T13:26:26.680Z,94.6
2016-11-08T13:27:26.653Z,94.6
2016-11-08T13:29:26.789Z,94.51
2016-11-08T13:30:27.109Z,94.51
2016-11-08T13:31:26.779Z,94.51
2016-11-08T13:32:26.747Z,94.42
2016-11-08T13:33:26.866Z,94.6
2016-11-08T13:34:41.700Z,94.51
2016-11-08T13:35:26.805Z,94.32
2016-11-08T13:36:26.820Z,94.03
2016-11-08T13:37:26.890Z,94.42
2016-11-08T13:38:27.564Z,93.84
2016-11-08T13:39:26.881Z,94.03